Time;durP1;ratioP1;P1;durP2;ratioP2;P2;SDS_P1;SDS_P2;PMS_P1;PMS_P2;Temp;Humidity;BMP_temperature;BMP_pressure;BME280_temperature;BME280_humidity;BME280_pressure;Samples;Min_cycle;Max_cycle;Signal;HPM_P1;HPM_P2
2021/12/07 00:00:23;;;;;;;12.67;2.20;;;4.80;99.90;;;;;;5012161;28;20657;-61
2021/12/07 00:02:50;;;;;;;9.80;1.80;;;4.80;99.90;;;;;;5023076;28;20202;-61
2021/12/07 00:05:16;;;;;;;11.07;2.10;;;4.80;99.90;;;;;;5030543;28;20208;-61
2021/12/07 00:07:43;;;;;;;17.63;2.10;;;4.70;99.90;;;;;;5033048;28;20214;-61
2021/12/07 00:10:12;;;;;;;15.30;2.00;;;4.90;99.90;;;;;;5033119;28;20593;-61
2021/12/07 00:12:42;;;;;;;9.67;1.60;;;4.90;99.90;;;;;;5033413;28;20694;-62
2021/12/07 00:15:10;;;;;;;13.13;2.07;;;4.90;99.90;;;;;;5033311;28;20173;-62
2021/12/07 00:17:36;;;;;;;12.77;1.53;;;4.90;99.90;;;;;;5032261;28;20182;-63
2021/12/07 00:20:12;;;;;;;8.90;1.70;;;4.90;99.90;;;;;;5033527;28;20177;-63
2021/12/07 00:22:38;;;;;;;16.37;2.60;;;4.90;99.90;;;;;;5032863;28;20183;-63
2021/12/07 00:25:06;;;;;;;15.60;2.07;;;5.10;99.90;;;;;;5032997;28;20173;-63
2021/12/07 00:27:31;;;;;;;17.93;2.37;;;5.10;99.90;;;;;;5033148;28;20217;-63
2021/12/07 00:29:57;;;;;;;14.40;1.73;;;5.10;99.90;;;;;;5033457;28;20567;-63
2021/12/07 00:32:31;;;;;;;12.57;1.80;;;5.00;99.90;;;;;;5032907;28;20182;-63
2021/12/07 00:37:31;;;;;;;10.03;1.97;;;5.10;99.90;;;;;;5032624;28;20181;-63
2021/12/07 00:39:57;;;;;;;15.30;2.27;;;5.10;99.90;;;;;;5029881;28;20170;-63
2021/12/07 00:42:23;;;;;;;11.07;2.20;;;5.20;99.90;;;;;;5032737;28;20196;-63
2021/12/07 00:44:49;;;;;;;12.73;2.50;;;5.20;99.90;;;;;;5032346;28;20190;-64
2021/12/07 00:47:16;;;;;;;11.07;1.93;;;5.20;99.90;;;;;;5032779;28;20670;-63
2021/12/07 00:49:42;;;;;;;14.83;2.07;;;5.10;99.90;;;;;;5032924;28;20277;-62
2021/12/07 00:52:08;;;;;;;13.03;2.23;;;5.00;99.90;;;;;;5032625;28;20189;-62
2021/12/07 00:54:35;;;;;;;13.87;2.50;;;5.00;99.90;;;;;;5032845;28;20170;-62
2021/12/07 00:57:02;;;;;;;12.40;2.23;;;5.00;99.90;;;;;;5032466;28;20236;-62
2021/12/07 00:59:29;;;;;;;12.17;1.80;;;4.80;99.90;;;;;;5032793;28;20177;-62
2021/12/07 01:01:56;;;;;;;15.10;2.17;;;4.70;99.90;;;;;;5032433;28;20212;-62
2021/12/07 01:04:23;;;;;;;17.60;1.90;;;4.60;99.90;;;;;;5032326;28;20265;-62
2021/12/07 01:09:41;;;;;;;18.27;1.80;;;4.50;99.90;;;;;;5032493;28;20179;-62
2021/12/07 01:25:55;;;;;;;21.87;2.03;;;4.00;99.90;;;;;;5027188;28;20656;-60
2021/12/07 01:30:57;;;;;;;12.30;2.10;;;3.90;99.90;;;;;;5031835;28;20632;-60
2021/12/07 01:59:58;;;;;;;21.47;2.77;;;3.30;99.90;;;;;;5031681;28;20188;-62
2021/12/07 02:02:27;;;;;;;12.50;2.30;;;3.20;99.90;;;;;;5031296;28;20251;-62
2021/12/07 02:04:55;;;;;;;20.20;2.70;;;3.10;99.90;;;;;;5031138;28;20178;-63
2021/12/07 02:07:21;;;;;;;19.67;2.07;;;3.10;99.90;;;;;;5031192;28;20228;-62
2021/12/07 02:09:52;;;;;;;15.87;2.67;;;3.10;99.90;;;;;;5031339;28;20237;-62
2021/12/07 02:12:18;;;;;;;18.63;2.73;;;3.10;99.90;;;;;;5031393;28;20261;-63
2021/12/07 02:14:44;;;;;;;16.83;2.80;;;3.10;99.90;;;;;;5031188;28;20235;-64
2021/12/07 02:17:17;;;;;;;16.63;2.43;;;3.10;99.90;;;;;;5030868;28;20186;-64
2021/12/07 02:19:42;;;;;;;14.97;1.97;;;3.10;99.90;;;;;;5031514;28;20228;-64
2021/12/07 02:22:10;;;;;;;10.27;2.23;;;3.20;99.90;;;;;;5031060;28;20173;-64
2021/12/07 02:24:37;;;;;;;19.93;3.40;;;3.30;99.90;;;;;;5031086;28;20575;-63
2021/12/07 02:27:03;;;;;;;10.77;2.03;;;3.30;99.90;;;;;;5031126;28;20672;-64
2021/12/07 02:29:29;;;;;;;15.43;2.80;;;3.30;99.90;;;;;;5030002;28;20649;-62
2021/12/07 02:31:56;;;;;;;14.13;2.13;;;3.40;99.90;;;;;;5030884;28;20190;-64
2021/12/07 02:34:23;;;;;;;15.57;2.27;;;3.40;99.90;;;;;;5031010;28;20185;-65
2021/12/07 02:36:50;;;;;;;11.87;2.33;;;3.30;99.90;;;;;;5030972;28;20178;-65
2021/12/07 02:39:16;;;;;;;12.60;2.47;;;3.30;99.90;;;;;;5030434;28;20202;-65
2021/12/07 02:41:43;;;;;;;14.43;2.30;;;3.20;99.90;;;;;;5030614;28;20311;-65
2021/12/07 02:44:10;;;;;;;14.43;2.33;;;3.20;99.90;;;;;;5030650;28;20218;-65
2021/12/07 02:46:38;;;;;;;12.73;2.53;;;3.10;99.90;;;;;;5030690;28;20563;-65
2021/12/07 02:49:06;;;;;;;12.90;2.30;;;3.10;99.90;;;;;;5011537;28;20186;-65
2021/12/07 02:51:33;;;;;;;14.70;2.50;;;3.10;99.90;;;;;;5023807;28;20195;-64
2021/12/07 02:53:59;;;;;;;14.37;2.47;;;3.20;99.90;;;;;;5030593;28;20253;-64
2021/12/07 02:56:25;;;;;;;19.00;2.80;;;3.20;99.90;;;;;;5030709;28;20186;-64
2021/12/07 02:58:56;;;;;;;29.93;3.13;;;3.30;99.90;;;;;;5030414;28;20655;-64
2021/12/07 03:01:27;;;;;;;12.50;2.67;;;3.40;99.90;;;;;;5030848;28;20178;-65
2021/12/07 03:04:08;;;;;;;18.67;2.70;;;3.50;99.90;;;;;;5030365;28;20632;-64
2021/12/07 03:28:19;;;;;;;16.13;2.23;;;4.10;99.90;;;;;;5029230;28;20198;-64
2021/12/07 03:30:45;;;;;;;11.70;1.67;;;4.20;99.90;;;;;;5029439;28;20240;-64
2021/12/07 03:33:11;;;;;;;14.87;2.03;;;4.10;99.90;;;;;;5029674;28;20178;-64
2021/12/07 03:35:37;;;;;;;20.83;2.30;;;4.20;99.90;;;;;;5029237;28;20258;-64
2021/12/07 03:38:05;;;;;;;12.97;2.20;;;4.30;99.90;;;;;;5030823;28;20174;-64
2021/12/07 03:40:31;;;;;;;11.13;1.87;;;4.40;99.90;;;;;;5031191;28;20182;-64
2021/12/07 03:42:58;;;;;;;15.63;2.00;;;4.40;99.90;;;;;;5032338;28;20220;-64
2021/12/07 03:45:24;;;;;;;18.27;2.50;;;4.40;99.90;;;;;;5034095;28;20312;-64
2021/12/07 03:47:51;;;;;;;14.53;1.93;;;4.40;99.90;;;;;;5033880;28;20263;-64
2021/12/07 03:50:17;;;;;;;22.00;2.30;;;4.40;99.90;;;;;;5033818;28;20180;-64
2021/12/07 03:52:42;;;;;;;16.63;2.23;;;4.40;99.90;;;;;;5033799;28;20256;-63
2021/12/07 03:55:09;;;;;;;14.87;2.00;;;4.40;99.90;;;;;;5033875;28;20205;-64
2021/12/07 03:57:34;;;;;;;11.77;1.93;;;4.40;99.90;;;;;;5033955;28;20593;-63
2021/12/07 04:00:03;;;;;;;16.50;2.23;;;4.40;99.90;;;;;;5033770;28;20174;-63
2021/12/07 04:02:29;;;;;;;12.43;1.87;;;4.40;99.90;;;;;;5033408;28;20178;-64
2021/12/07 04:05:00;;;;;;;21.83;2.07;;;4.40;99.90;;;;;;5033838;28;20546;-64
2021/12/07 04:07:26;;;;;;;14.37;2.20;;;4.50;99.90;;;;;;5033385;28;20216;-64
2021/12/07 04:09:53;;;;;;;12.00;2.00;;;4.50;99.90;;;;;;5033961;28;20178;-63
2021/12/07 04:12:18;;;;;;;9.80;1.83;;;4.50;99.90;;;;;;5033602;28;20184;-64
2021/12/07 04:14:44;;;;;;;8.50;1.87;;;4.50;99.90;;;;;;5033265;28;20536;-64
2021/12/07 04:17:10;;;;;;;11.97;2.20;;;4.50;99.90;;;;;;5022422;28;20170;-64
2021/12/07 04:19:36;;;;;;;7.07;1.80;;;4.50;99.90;;;;;;5033015;28;20541;-64
2021/12/07 04:22:02;;;;;;;11.23;1.83;;;4.60;99.90;;;;;;5033378;28;20288;-63
2021/12/07 04:24:27;;;;;;;14.27;1.87;;;4.60;99.90;;;;;;5033674;28;20189;-63
2021/12/07 04:26:56;;;;;;;13.97;2.70;;;4.60;99.90;;;;;;5015690;28;20205;-63
2021/12/07 04:29:22;;;;;;;11.30;2.00;;;4.60;99.90;;;;;;5033147;28;20193;-63
2021/12/07 04:31:48;;;;;;;12.40;1.93;;;4.70;99.90;;;;;;5032705;28;20181;-63
2021/12/07 04:34:14;;;;;;;9.20;1.93;;;4.70;99.90;;;;;;5033174;28;20174;-63
2021/12/07 04:36:40;;;;;;;12.67;2.27;;;4.70;99.90;;;;;;5033056;28;20233;-64
2021/12/07 04:39:05;;;;;;;15.80;2.40;;;4.70;99.90;;;;;;5033409;28;20223;-63
2021/12/07 04:41:33;;;;;;;13.30;1.93;;;4.60;99.90;;;;;;5032550;28;20718;-63
2021/12/07 04:44:02;;;;;;;14.93;2.10;;;4.60;99.90;;;;;;5033018;28;20243;-63
2021/12/07 04:46:42;;;;;;;15.10;2.40;;;4.60;99.90;;;;;;5033014;28;20202;-63
2021/12/07 05:00:10;;;;;;;8.37;1.70;;;4.60;99.90;;;;;;5032560;28;20185;-62
2021/12/07 05:02:38;;;;;;;9.47;1.87;;;4.60;99.90;;;;;;5032052;28;20174;-62
2021/12/07 05:05:04;;;;;;;16.83;1.83;;;4.60;99.90;;;;;;5032578;28;20181;-63
2021/12/07 05:07:38;;;;;;;17.10;2.03;;;4.60;99.90;;;;;;5032119;28;20212;-63
2021/12/07 05:11:00;;;;;;;12.80;1.50;;;4.60;99.90;;;;;;5016100;28;20166;-63
2021/12/07 05:15:56;;;;;;;15.43;1.80;;;4.70;99.90;;;;;;5032586;28;20182;-63
2021/12/07 05:23:58;;;;;;;14.20;1.90;;;4.70;99.90;;;;;;5032474;28;20640;-62
2021/12/07 05:39:54;;;;;;;10.90;1.57;;;4.80;99.90;;;;;;5031694;28;20225;-63
2021/12/07 05:42:24;;;;;;;12.23;1.67;;;4.90;99.90;;;;;;5031750;28;20232;-63
2021/12/07 05:44:53;;;;;;;9.33;1.50;;;4.90;99.90;;;;;;5013173;28;20590;-63
2021/12/07 05:47:19;;;;;;;9.60;1.57;;;4.90;99.90;;;;;;5031528;28;20209;-63
2021/12/07 05:49:45;;;;;;;12.50;1.63;;;4.90;99.90;;;;;;5031895;28;20196;-64
2021/12/07 05:52:11;;;;;;;8.03;1.40;;;4.90;99.90;;;;;;5031564;28;20272;-64
2021/12/07 05:54:37;;;;;;;14.17;1.53;;;4.90;99.90;;;;;;5031647;28;20216;-64
2021/12/07 05:57:03;;;;;;;8.57;1.60;;;5.00;99.90;;;;;;5031763;28;20185;-64
2021/12/07 05:59:29;;;;;;;13.47;1.67;;;5.00;99.90;;;;;;5031354;28;20185;-64
2021/12/07 06:01:55;;;;;;;8.33;1.40;;;5.00;99.90;;;;;;5031219;28;20520;-64
2021/12/07 06:04:21;;;;;;;10.17;1.33;;;5.00;99.90;;;;;;5031009;28;20235;-64
2021/12/07 06:06:47;;;;;;;11.53;1.70;;;5.00;99.90;;;;;;5031076;28;20204;-64
2021/12/07 06:09:12;;;;;;;9.63;1.40;;;5.00;99.90;;;;;;5031373;28;20182;-64
2021/12/07 06:11:38;;;;;;;9.07;1.53;;;5.10;99.90;;;;;;5030512;28;20656;-64
2021/12/07 06:14:04;;;;;;;11.40;2.03;;;5.10;99.90;;;;;;5031253;28;20200;-64
2021/12/07 06:16:31;;;;;;;21.77;1.67;;;5.20;99.90;;;;;;5031294;28;20711;-64
2021/12/07 06:18:58;;;;;;;9.30;1.80;;;5.20;99.90;;;;;;5031234;28;20186;-64
2021/12/07 06:21:25;;;;;;;13.83;1.77;;;5.20;99.90;;;;;;5030991;28;20205;-63
2021/12/07 06:23:52;;;;;;;13.13;1.87;;;5.20;99.90;;;;;;5031264;28;20182;-63
2021/12/07 06:26:19;;;;;;;16.50;1.80;;;5.30;99.90;;;;;;5031020;28;20170;-63
2021/12/07 06:28:44;;;;;;;12.40;2.00;;;5.30;99.90;;;;;;5031082;28;20209;-62
2021/12/07 06:31:10;;;;;;;10.33;1.83;;;5.40;99.90;;;;;;5030628;28;20202;-63
2021/12/07 06:33:36;;;;;;;10.00;1.60;;;5.50;99.90;;;;;;5030685;28;20227;-63
2021/12/07 06:36:04;;;;;;;5.57;1.60;;;5.60;99.90;;;;;;5031151;28;20174;-63
2021/12/07 06:38:32;;;;;;;13.37;1.50;;;5.60;99.90;;;;;;5031429;28;20170;-62
2021/12/07 06:41:00;;;;;;;9.00;1.60;;;5.70;99.90;;;;;;5030775;28;20170;-63
2021/12/07 06:43:26;;;;;;;13.60;1.60;;;5.70;99.90;;;;;;5030877;28;20217;-62
2021/12/07 06:45:52;;;;;;;9.83;1.60;;;5.80;99.90;;;;;;5031181;28;20185;-63
2021/12/07 06:48:17;;;;;;;12.23;1.57;;;5.80;99.90;;;;;;5031055;28;20202;-66
2021/12/07 06:50:44;;;;;;;19.57;1.67;;;5.80;99.90;;;;;;5030569;28;20220;-66
2021/12/07 06:53:10;;;;;;;14.50;1.90;;;5.70;99.90;;;;;;5013442;28;20178;-60
2021/12/07 06:55:36;;;;;;;7.47;1.83;;;5.70;99.90;;;;;;5030988;28;20257;-62
2021/12/07 06:58:03;;;;;;;11.33;1.43;;;5.70;99.90;;;;;;5031108;28;20256;-63
2021/12/07 07:00:29;;;;;;;11.97;1.87;;;5.70;99.90;;;;;;5030632;28;20683;-62
2021/12/07 07:02:55;;;;;;;7.07;1.33;;;5.70;99.90;;;;;;5030648;28;20166;-63
2021/12/07 07:05:21;;;;;;;11.23;1.60;;;5.80;99.90;;;;;;5030463;28;20185;-63
2021/12/07 07:07:47;;;;;;;11.03;1.93;;;5.80;99.90;;;;;;5030800;28;20275;-63
2021/12/07 07:10:16;;;;;;;14.70;1.37;;;5.80;99.90;;;;;;5030609;28;20257;-63
2021/12/07 07:12:45;;;;;;;8.87;1.30;;;5.90;99.90;;;;;;5029373;28;20645;-63
2021/12/07 07:15:11;;;;;;;4.33;1.30;;;5.90;99.90;;;;;;5031514;28;20240;-63
2021/12/07 07:17:38;;;;;;;11.83;1.53;;;6.00;99.90;;;;;;5035177;28;20178;-63
2021/12/07 07:20:07;;;;;;;8.97;1.40;;;5.90;99.90;;;;;;5036925;28;20178;-63
2021/12/07 07:22:32;;;;;;;11.90;1.83;;;5.90;99.90;;;;;;5029503;28;20530;-63
2021/12/07 07:24:58;;;;;;;12.37;1.50;;;5.90;99.90;;;;;;5034781;28;20264;-64
2021/12/07 07:27:24;;;;;;;8.10;1.40;;;6.00;99.90;;;;;;5034382;28;20641;-64
2021/12/07 07:29:50;;;;;;;11.27;1.97;;;6.00;99.90;;;;;;5034974;28;20176;-63
2021/12/07 07:32:16;;;;;;;10.63;1.70;;;6.00;99.90;;;;;;5034674;28;20182;-64
2021/12/07 07:34:41;;;;;;;6.53;1.67;;;5.90;99.90;;;;;;5035136;28;20231;-63
2021/12/07 07:37:07;;;;;;;9.57;1.87;;;5.90;99.90;;;;;;5034771;28;20546;-63
2021/12/07 07:39:33;;;;;;;12.27;1.87;;;5.90;99.90;;;;;;5034554;28;20258;-63
2021/12/07 07:41:59;;;;;;;13.00;2.03;;;5.80;99.90;;;;;;5034287;28;20641;-63
2021/12/07 07:44:25;;;;;;;15.87;1.70;;;5.90;99.90;;;;;;5033389;28;20221;-63
2021/12/07 07:46:51;;;;;;;8.23;1.10;;;6.10;99.90;;;;;;5034338;28;20210;-64
2021/12/07 07:49:17;;;;;;;12.37;1.93;;;6.30;99.90;;;;;;5033960;28;20173;-64
2021/12/07 07:51:42;;;;;;;12.27;2.43;;;6.80;99.90;;;;;;5033938;28;20540;-63
2021/12/07 07:54:08;;;;;;;8.73;1.47;;;6.80;99.90;;;;;;5034013;28;20186;-63
2021/12/07 07:56:36;;;;;;;15.83;1.60;;;7.00;99.90;;;;;;5034410;28;20190;-64
2021/12/07 07:59:03;;;;;;;14.50;1.57;;;7.10;99.90;;;;;;5021462;28;20542;-63
2021/12/07 08:01:31;;;;;;;5.17;0.80;;;7.20;99.90;;;;;;5031753;28;20327;-65
2021/12/07 08:03:58;;;;;;;9.37;1.40;;;7.40;99.90;;;;;;5047795;28;20173;-63
2021/12/07 08:06:24;;;;;;;11.97;2.07;;;7.40;99.90;;;;;;5038527;28;20232;-63
2021/12/07 08:08:50;;;;;;;13.50;1.70;;;7.40;99.90;;;;;;5033663;28;20176;-63
2021/12/07 08:11:16;;;;;;;10.33;1.33;;;7.40;99.90;;;;;;5033591;28;20182;-63
2021/12/07 08:13:42;;;;;;;12.40;2.07;;;7.20;99.90;;;;;;5033542;28;20181;-65
2021/12/07 08:16:15;;;;;;;10.03;1.40;;;7.10;99.90;;;;;;5033263;28;20174;-63
2021/12/07 08:18:46;;;;;;;9.27;1.53;;;7.10;99.90;;;;;;5034072;28;20253;-67
2021/12/07 08:21:13;;;;;;;6.80;0.73;;;7.10;99.90;;;;;;5033434;28;20261;-66
2021/12/07 08:23:40;;;;;;;11.70;1.57;;;7.10;99.90;;;;;;5033764;28;20165;-65
2021/12/07 08:26:09;;;;;;;8.30;1.30;;;7.10;99.90;;;;;;5032393;28;20178;-64
2021/12/07 08:28:35;;;;;;;12.63;1.03;;;7.10;99.90;;;;;;5039214;28;20295;-63
2021/12/07 08:31:02;;;;;;;11.63;1.37;;;7.10;99.90;;;;;;5032466;28;20178;-66
2021/12/07 08:33:28;;;;;;;15.63;1.63;;;7.10;99.90;;;;;;5033336;28;20185;-66
2021/12/07 08:35:54;;;;;;;9.17;1.43;;;7.20;99.90;;;;;;5032486;28;20173;-65
2021/12/07 08:38:20;;;;;;;7.47;1.40;;;7.20;99.90;;;;;;5033191;28;20644;-67
2021/12/07 08:40:53;;;;;;;14.13;1.97;;;7.20;99.90;;;;;;5033097;28;20185;-65
2021/12/07 08:43:21;;;;;;;14.97;1.23;;;7.30;99.90;;;;;;5032276;28;20218;-66
2021/12/07 08:45:47;;;;;;;13.80;1.53;;;7.40;99.90;;;;;;5032593;28;20173;-65
2021/12/07 08:48:13;;;;;;;10.17;1.40;;;7.30;99.90;;;;;;5031544;28;20238;-66
2021/12/07 08:50:41;;;;;;;7.03;1.73;;;7.40;99.90;;;;;;5031919;28;20596;-64
2021/12/07 08:53:11;;;;;;;20.40;1.80;;;7.50;99.90;;;;;;5038227;28;20193;-64
2021/12/07 09:01:06;;;;;;;13.37;1.93;;;7.60;99.90;;;;;;5031628;28;20188;-63
2021/12/07 09:03:32;;;;;;;12.23;1.83;;;7.70;99.90;;;;;;5032173;28;20177;-63
2021/12/07 09:05:58;;;;;;;10.63;2.30;;;7.80;99.90;;;;;;5032552;28;20197;-63
2021/12/07 09:08:24;;;;;;;14.03;1.93;;;7.90;99.90;;;;;;5032072;28;20219;-63
2021/12/07 09:10:51;;;;;;;12.70;1.67;;;7.90;99.90;;;;;;5031463;28;20297;-64
2021/12/07 09:13:17;;;;;;;10.30;2.20;;;7.80;99.90;;;;;;5032448;28;20177;-64
2021/12/07 09:15:43;;;;;;;23.73;2.03;;;7.90;99.90;;;;;;5033019;28;20185;-66
2021/12/07 09:18:09;;;;;;;14.47;1.47;;;7.90;99.90;;;;;;5031352;28;20186;-66
2021/12/07 09:20:36;;;;;;;23.03;1.80;;;7.90;99.90;;;;;;5014638;28;20170;-66
2021/12/07 09:23:02;;;;;;;22.70;2.03;;;8.00;99.90;;;;;;5032457;28;20185;-66
2021/12/07 09:25:28;;;;;;;17.73;1.93;;;8.00;99.90;;;;;;5032660;28;20197;-66
2021/12/07 09:27:54;;;;;;;12.43;1.97;;;7.80;99.90;;;;;;5032388;28;20227;-70
2021/12/07 09:30:20;;;;;;;17.73;2.00;;;8.10;99.90;;;;;;5032189;28;20177;-66
2021/12/07 09:32:47;;;;;;;10.53;1.20;;;8.10;99.90;;;;;;5032238;28;20170;-70
2021/12/07 09:35:14;;;;;;;17.33;2.23;;;8.10;99.90;;;;;;5032454;28;20205;-70
2021/12/07 09:37:40;;;;;;;12.03;2.30;;;8.10;99.90;;;;;;5031186;28;20224;-71
2021/12/07 09:40:11;;;;;;;11.57;1.63;;;8.10;99.90;;;;;;5024589;28;20185;-70
2021/12/07 09:42:37;;;;;;;13.53;1.50;;;8.10;99.90;;;;;;5013914;28;20218;-69
2021/12/07 09:45:05;;;;;;;12.67;1.83;;;8.10;99.90;;;;;;5013027;28;20497;-70
2021/12/07 09:47:31;;;;;;;5.80;1.00;;;8.10;99.90;;;;;;5028495;28;20205;-69
2021/12/07 09:49:57;;;;;;;9.03;1.87;;;8.00;99.90;;;;;;5033014;28;20166;-70
2021/12/07 09:52:24;;;;;;;11.63;1.77;;;7.90;99.90;;;;;;5033628;28;20197;-65
2021/12/07 09:54:51;;;;;;;11.57;1.00;;;7.90;99.90;;;;;;5032138;28;20257;-71
2021/12/07 09:57:17;;;;;;;10.87;1.97;;;7.90;99.90;;;;;;5012966;28;20213;-71
2021/12/07 09:59:43;;;;;;;4.47;0.77;;;7.80;99.90;;;;;;5012126;28;20214;-71
2021/12/07 10:02:09;;;;;;;16.83;2.13;;;7.80;99.90;;;;;;5013160;28;20675;-71
2021/12/07 10:04:35;;;;;;;12.90;1.97;;;7.90;99.90;;;;;;5013308;28;20171;-72
2021/12/07 10:07:01;;;;;;;5.10;1.10;;;7.90;99.90;;;;;;5013498;28;20210;-70
2021/12/07 10:09:27;;;;;;;21.03;2.40;;;7.80;99.90;;;;;;5012880;28;20255;-72
2021/12/07 10:11:54;;;;;;;12.57;1.50;;;7.70;99.90;;;;;;5013332;28;20182;-72
2021/12/07 10:14:20;;;;;;;13.67;2.00;;;7.70;99.90;;;;;;5028041;28;20170;-71
2021/12/07 10:16:48;;;;;;;22.50;2.70;;;7.70;99.90;;;;;;5031841;28;20231;-72
2021/12/07 10:19:27;;;;;;;20.50;2.40;;;7.70;99.90;;;;;;5031432;28;20273;-71
2021/12/07 10:22:06;;;;;;;21.07;2.77;;;7.70;99.90;;;;;;5031194;28;20174;-72
2021/12/07 10:24:47;;;;;;;5.37;0.93;;;7.80;99.90;;;;;;5029905;28;20200;-71
2021/12/07 10:27:30;;;;;;;12.57;1.93;;;7.90;99.90;;;;;;5031174;28;20221;-72
2021/12/07 10:29:56;;;;;;;23.93;2.27;;;8.10;99.90;;;;;;5031213;28;20170;-71
2021/12/07 10:32:22;;;;;;;12.60;1.23;;;8.10;99.90;;;;;;5029936;28;20281;-70
2021/12/07 10:34:48;;;;;;;12.73;2.23;;;8.20;99.90;;;;;;5030345;28;20280;-73
2021/12/07 10:37:16;;;;;;;11.23;1.90;;;8.30;99.90;;;;;;5030158;28;20260;-72
2021/12/07 10:39:49;;;;;;;10.80;2.20;;;8.60;99.90;;;;;;5015286;28;20182;-71
2021/12/07 10:42:21;;;;;;;9.40;1.37;;;8.70;99.90;;;;;;5010982;28;20551;-71
2021/12/07 10:44:48;;;;;;;10.83;1.73;;;8.90;99.90;;;;;;5027561;28;20208;-71
2021/12/07 10:47:19;;;;;;;11.67;1.87;;;8.90;99.90;;;;;;5031185;28;20212;-74
2021/12/07 10:49:53;;;;;;;16.37;2.03;;;8.90;99.90;;;;;;5030675;28;20178;-73
2021/12/07 10:52:29;;;;;;;21.33;2.27;;;8.90;99.90;;;;;;5031149;28;20189;-73
2021/12/07 10:55:01;;;;;;;7.57;1.43;;;8.90;99.90;;;;;;5031473;28;20188;-73
2021/12/07 10:57:30;;;;;;;5.53;1.23;;;8.90;99.90;;;;;;5031094;28;20173;-73
2021/12/07 11:00:22;;;;;;;11.20;1.27;;;8.90;99.90;;;;;;5031578;28;20201;-73
2021/12/07 11:02:59;;;;;;;9.07;1.13;;;8.90;99.90;;;;;;5021637;28;20289;-69
2021/12/07 11:05:29;;;;;;;7.13;1.57;;;9.10;99.90;;;;;;5012254;28;20174;-69
2021/12/07 11:07:56;;;;;;;12.83;1.40;;;9.10;99.90;;;;;;5030801;28;20541;-68
2021/12/07 11:10:32;;;;;;;12.13;1.37;;;9.00;99.90;;;;;;5030570;28;20178;-66
2021/12/07 11:15:35;;;;;;;15.27;1.30;;;9.00;99.90;;;;;;5030638;28;20563;-69
2021/12/07 11:18:03;;;;;;;6.20;1.03;;;9.00;99.90;;;;;;5031059;28;20546;-70
2021/12/07 11:20:30;;;;;;;3.03;0.70;;;9.00;99.90;;;;;;5030622;28;20209;-70
2021/12/07 11:23:02;;;;;;;6.03;1.03;;;9.10;99.90;;;;;;5029752;28;20223;-70
2021/12/07 11:29:39;;;;;;;5.53;0.77;;;9.10;99.90;;;;;;5030438;28;20178;-69
2021/12/07 11:31:53;;;;;;;4.43;0.90;;;9.20;99.90;;;;;;5030054;28;20201;-70
2021/12/07 11:34:24;;;;;;;9.00;1.10;;;9.30;99.90;;;;;;5029894;28;20253;-68
2021/12/07 11:36:54;;;;;;;5.77;0.87;;;9.30;99.90;;;;;;5030296;28;20189;-68
2021/12/07 11:39:41;;;;;;;6.37;1.20;;;9.30;99.90;;;;;;5030635;28;20178;-68
2021/12/07 11:42:09;;;;;;;4.87;1.23;;;9.40;99.90;;;;;;5030033;28;20207;-69
2021/12/07 11:44:46;;;;;;;6.87;1.07;;;9.40;99.90;;;;;;5029839;28;20304;-68
2021/12/07 11:47:11;;;;;;;9.80;1.03;;;9.40;99.90;;;;;;5029689;28;20201;-69
2021/12/07 11:49:38;;;;;;;8.27;1.20;;;9.50;99.90;;;;;;5012737;28;20185;-67
2021/12/07 11:52:06;;;;;;;4.60;0.73;;;9.60;99.90;;;;;;5028947;28;20637;-68
2021/12/07 11:54:35;;;;;;;8.73;1.27;;;9.60;99.90;;;;;;5029549;28;20193;-67
2021/12/07 11:57:03;;;;;;;8.53;1.10;;;9.60;99.90;;;;;;5028026;28;20182;-69
2021/12/07 11:59:29;;;;;;;6.87;1.10;;;9.60;99.90;;;;;;5029861;28;20182;-69
2021/12/07 12:01:55;;;;;;;7.03;1.50;;;9.60;99.90;;;;;;5031965;28;20231;-68
2021/12/07 12:04:21;;;;;;;6.93;1.30;;;9.60;99.90;;;;;;5033931;28;20170;-68
2021/12/07 12:06:53;;;;;;;10.03;1.40;;;9.50;99.90;;;;;;5033491;28;20237;-66
2021/12/07 12:09:19;;;;;;;6.70;0.87;;;9.50;99.90;;;;;;5033258;28;20189;-67
2021/12/07 12:12:13;;;;;;;6.63;0.73;;;9.50;99.90;;;;;;5033409;28;20265;-67
2021/12/07 12:14:57;;;;;;;7.07;1.20;;;9.50;99.90;;;;;;5033251;28;20173;-67
2021/12/07 12:17:45;;;;;;;7.73;1.17;;;9.40;99.90;;;;;;5033368;28;20636;-68
2021/12/07 12:20:25;;;;;;;10.37;1.30;;;9.30;99.90;;;;;;5032620;28;20647;-67
2021/12/07 12:23:12;;;;;;;4.20;0.80;;;9.20;99.90;;;;;;5032905;28;20178;-69
2021/12/07 12:25:38;;;;;;;6.47;1.07;;;9.20;99.90;;;;;;5032481;28;20177;-68
2021/12/07 12:28:04;;;;;;;6.03;1.20;;;9.20;99.90;;;;;;5033143;28;20216;-66
2021/12/07 12:30:41;;;;;;;8.87;0.97;;;9.20;99.90;;;;;;5032517;28;20252;-68
2021/12/07 12:33:10;;;;;;;17.33;1.17;;;9.20;99.90;;;;;;5032826;28;20166;-68
2021/12/07 12:35:49;;;;;;;8.57;1.30;;;9.10;99.90;;;;;;5033102;28;20177;-67
2021/12/07 12:38:22;;;;;;;15.17;2.17;;;9.20;99.90;;;;;;5032668;28;20625;-67
2021/12/07 12:41:06;;;;;;;7.93;1.40;;;9.00;99.90;;;;;;5025971;28;20640;-67
2021/12/07 12:43:53;;;;;;;14.73;2.27;;;8.00;99.90;;;;;;5017887;28;20228;-69
2021/12/07 12:46:30;;;;;;;18.37;1.93;;;7.40;99.90;;;;;;5026153;28;20184;-70
2021/12/07 12:48:59;;;;;;;21.47;2.47;;;6.50;99.90;;;;;;5030672;28;20178;-69
2021/12/07 12:51:29;;;;;;;19.03;2.13;;;6.10;99.90;;;;;;5032313;28;20181;-68
2021/12/07 12:53:55;;;;;;;18.63;2.50;;;5.90;99.90;;;;;;5032982;28;20173;-67
2021/12/07 12:56:25;;;;;;;17.33;2.20;;;5.80;99.90;;;;;;5032835;28;20637;-67
2021/12/07 12:58:54;;;;;;;17.70;2.90;;;5.80;99.90;;;;;;5032541;28;20236;-68
2021/12/07 13:01:34;;;;;;;20.33;2.67;;;5.80;99.90;;;;;;5032284;28;20224;-68
2021/12/07 13:04:15;;;;;;;18.10;2.50;;;5.90;99.90;;;;;;5029652;28;20636;-66
2021/12/07 13:07:02;;;;;;;19.70;2.43;;;5.90;99.90;;;;;;5022937;28;20217;-67
2021/12/07 13:09:32;;;;;;;17.03;2.63;;;6.00;99.90;;;;;;5029505;28;20633;-67
2021/12/07 13:12:15;;;;;;;16.07;2.33;;;6.10;99.90;;;;;;5030309;28;20206;-67
2021/12/07 13:14:52;;;;;;;22.07;2.93;;;6.20;99.90;;;;;;5019259;28;20260;-67
2021/12/07 13:17:26;;;;;;;24.93;3.17;;;6.30;99.90;;;;;;5032442;28;20178;-67
2021/12/07 13:20:16;;;;;;;17.77;2.90;;;6.40;99.90;;;;;;5032623;28;20207;-67
2021/12/07 13:23:00;;;;;;;20.70;3.03;;;6.60;99.90;;;;;;5031229;28;20649;-67
2021/12/07 13:25:34;;;;;;;18.90;2.40;;;6.70;99.90;;;;;;5031274;28;20214;-67
2021/12/07 13:28:24;;;;;;;28.03;3.43;;;6.90;99.90;;;;;;5031585;28;20240;-67
2021/12/07 13:30:51;;;;;;;24.40;2.73;;;7.00;99.90;;;;;;5013182;28;20181;-67
2021/12/07 13:33:21;;;;;;;21.80;3.13;;;7.10;99.90;;;;;;5031097;28;20670;-67
2021/12/07 13:35:49;;;;;;;17.20;2.67;;;7.20;99.90;;;;;;5030392;28;20178;-67
2021/12/07 13:38:18;;;;;;;22.70;3.20;;;7.20;99.90;;;;;;5031980;28;20201;-67
2021/12/07 13:40:44;;;;;;;26.97;3.13;;;7.30;99.90;;;;;;5013851;28;20261;-67
2021/12/07 13:43:27;;;;;;;19.73;3.13;;;7.30;99.90;;;;;;5030537;28;20269;-67
2021/12/07 13:46:05;;;;;;;16.57;2.83;;;7.40;99.90;;;;;;4994192;28;20213;-67
2021/12/07 13:48:31;;;;;;;26.37;4.10;;;7.40;99.90;;;;;;5027588;28;20217;-67
2021/12/07 13:50:57;;;;;;;32.20;3.60;;;7.50;99.90;;;;;;5031558;28;20189;-68
2021/12/07 13:53:22;;;;;;;28.00;3.37;;;7.50;99.90;;;;;;5031025;28;20220;-68
2021/12/07 13:55:50;;;;;;;36.77;3.93;;;7.60;99.90;;;;;;5031529;28;20162;-67
2021/12/07 13:58:16;;;;;;;51.37;5.33;;;7.70;99.90;;;;;;5031092;28;20268;-68
2021/12/07 14:00:42;;;;;;;35.20;4.67;;;7.90;99.90;;;;;;5031749;28;20197;-68
2021/12/07 14:03:09;;;;;;;30.97;3.97;;;8.40;99.90;;;;;;5031514;28;20539;-68
2021/12/07 14:05:42;;;;;;;19.30;3.43;;;8.90;99.90;;;;;;5030530;28;20170;-68
2021/12/07 14:08:11;;;;;;;24.37;4.47;;;9.90;99.90;;;;;;5019275;28;20304;-68
2021/12/07 14:10:55;;;;;;;39.90;4.80;;;10.60;99.90;;;;;;5031110;28;20181;-67
2021/12/07 14:13:22;;;;;;;38.47;5.03;;;11.00;99.90;;;;;;5029897;28;20224;-67
2021/12/07 14:15:50;;;;;;;36.87;4.50;;;11.20;99.90;;;;;;5031057;28;20182;-68
2021/12/07 14:18:19;;;;;;;43.80;5.03;;;11.20;99.90;;;;;;5031179;28;20181;-66
2021/12/07 14:20:57;;;;;;;37.53;4.60;;;11.10;99.90;;;;;;5031410;28;20173;-66
2021/12/07 14:23:51;;;;;;;38.27;4.97;;;10.70;99.90;;;;;;5030183;28;20261;-70
2021/12/07 14:26:22;;;;;;;33.97;5.00;;;10.80;99.90;;;;;;5030012;28;20166;-68
2021/12/07 14:28:52;;;;;;;36.43;4.93;;;10.90;99.90;;;;;;5030547;28;20185;-68
2021/12/07 14:34:45;;;;;;;36.83;5.33;;;10.70;99.90;;;;;;5030879;28;20173;-68
2021/12/07 14:37:20;;;;;;;37.43;5.37;;;10.60;99.90;;;;;;5029513;28;20534;-68
2021/12/07 14:39:46;;;;;;;43.57;5.90;;;10.70;99.90;;;;;;5029835;28;20208;-68
2021/12/07 14:42:19;;;;;;;42.07;5.27;;;10.90;99.90;;;;;;5030661;28;20189;-68
2021/12/07 14:44:52;;;;;;;30.30;4.47;;;11.10;99.90;;;;;;5008675;28;20218;-68
2021/12/07 14:47:19;;;;;;;32.87;4.57;;;11.10;99.90;;;;;;5010995;28;20214;-68
2021/12/07 14:49:51;;;;;;;28.40;4.60;;;10.80;99.90;;;;;;5012657;28;20178;-68
2021/12/07 14:52:36;;;;;;;29.63;4.70;;;10.70;99.90;;;;;;5010073;28;20177;-68
2021/12/07 14:55:03;;;;;;;33.80;4.20;;;10.70;99.90;;;;;;5010620;28;20178;-69